sensor_id;sensor_type;location;lat;lon;timestamp;P1;durP1;ratioP1;P2;durP2;ratioP2
12591;SDS011;6361;52.120;5.108;2023-03-23T00:01:47;12.88;;;5.30;;
12591;SDS011;6361;52.120;5.108;2023-03-23T00:04:15;10.10;;;4.97;;
12591;SDS011;6361;52.120;5.108;2023-03-23T00:06:41;9.25;;;5.20;;
12591;SDS011;6361;52.120;5.108;2023-03-23T00:09:07;8.57;;;4.82;;
12591;SDS011;6361;52.120;5.108;2023-03-23T00:11:33;8.85;;;5.22;;
12591;SDS011;6361;52.120;5.108;2023-03-23T00:13:59;11.55;;;5.00;;
12591;SDS011;6361;52.120;5.108;2023-03-23T00:16:29;9.57;;;4.50;;
12591;SDS011;6361;52.120;5.108;2023-03-23T00:19:03;10.45;;;5.10;;
12591;SDS011;6361;52.120;5.108;2023-03-23T00:21:31;10.65;;;4.38;;
12591;SDS011;6361;52.120;5.108;2023-03-23T00:24:03;11.80;;;5.20;;
12591;SDS011;6361;52.120;5.108;2023-03-23T00:26:31;6.00;;;4.28;;
12591;SDS011;6361;52.120;5.108;2023-03-23T00:28:58;8.27;;;4.30;;
12591;SDS011;6361;52.120;5.108;2023-03-23T00:31:28;8.15;;;4.45;;
12591;SDS011;6361;52.120;5.108;2023-03-23T00:34:01;9.50;;;4.40;;
12591;SDS011;6361;52.120;5.108;2023-03-23T00:36:28;9.00;;;4.20;;
12591;SDS011;6361;52.120;5.108;2023-03-23T00:38:59;7.20;;;4.50;;
12591;SDS011;6361;52.120;5.108;2023-03-23T00:41:26;7.68;;;4.28;;
12591;SDS011;6361;52.120;5.108;2023-03-23T00:43:53;9.25;;;4.30;;
12591;SDS011;6361;52.120;5.108;2023-03-23T00:46:19;8.40;;;4.18;;
12591;SDS011;6361;52.120;5.108;2023-03-23T00:48:45;6.47;;;4.18;;
12591;SDS011;6361;52.120;5.108;2023-03-23T00:51:11;6.20;;;3.40;;
12591;SDS011;6361;52.120;5.108;2023-03-23T00:53:37;9.68;;;4.40;;
12591;SDS011;6361;52.120;5.108;2023-03-23T00:56:03;8.00;;;4.10;;
12591;SDS011;6361;52.120;5.108;2023-03-23T00:58:29;7.53;;;3.80;;
12591;SDS011;6361;52.120;5.108;2023-03-23T01:00:54;8.27;;;4.05;;
12591;SDS011;6361;52.120;5.108;2023-03-23T01:03:21;8.30;;;3.55;;
12591;SDS011;6361;52.120;5.108;2023-03-23T01:05:50;8.00;;;3.53;;
12591;SDS011;6361;52.120;5.108;2023-03-23T01:08:16;7.38;;;3.63;;
12591;SDS011;6361;52.120;5.108;2023-03-23T01:10:43;7.72;;;3.75;;
12591;SDS011;6361;52.120;5.108;2023-03-23T01:13:09;6.70;;;3.55;;
12591;SDS011;6361;52.120;5.108;2023-03-23T01:15:34;4.45;;;3.20;;
12591;SDS011;6361;52.120;5.108;2023-03-23T01:18:00;6.95;;;3.65;;
12591;SDS011;6361;52.120;5.108;2023-03-23T01:20:26;8.80;;;3.45;;
12591;SDS011;6361;52.120;5.108;2023-03-23T01:22:53;7.72;;;3.53;;
12591;SDS011;6361;52.120;5.108;2023-03-23T01:25:25;7.68;;;3.28;;
12591;SDS011;6361;52.120;5.108;2023-03-23T01:27:55;8.82;;;3.65;;
12591;SDS011;6361;52.120;5.108;2023-03-23T01:30:21;4.00;;;3.00;;
12591;SDS011;6361;52.120;5.108;2023-03-23T01:32:46;7.10;;;3.22;;
12591;SDS011;6361;52.120;5.108;2023-03-23T01:35:12;6.82;;;3.25;;
12591;SDS011;6361;52.120;5.108;2023-03-23T01:37:38;7.63;;;3.45;;
12591;SDS011;6361;52.120;5.108;2023-03-23T01:40:03;8.60;;;3.15;;
12591;SDS011;6361;52.120;5.108;2023-03-23T01:42:30;6.88;;;3.45;;
12591;SDS011;6361;52.120;5.108;2023-03-23T01:47:42;9.48;;;3.53;;
12591;SDS011;6361;52.120;5.108;2023-03-23T01:50:08;6.55;;;3.58;;
12591;SDS011;6361;52.120;5.108;2023-03-23T01:52:33;5.10;;;3.60;;
12591;SDS011;6361;52.120;5.108;2023-03-23T01:55:01;9.85;;;3.47;;
12591;SDS011;6361;52.120;5.108;2023-03-23T01:57:27;5.47;;;3.13;;
12591;SDS011;6361;52.120;5.108;2023-03-23T01:59:54;6.25;;;3.58;;
12591;SDS011;6361;52.120;5.108;2023-03-23T02:02:21;9.50;;;3.38;;
12591;SDS011;6361;52.120;5.108;2023-03-23T02:04:47;5.10;;;3.30;;
12591;SDS011;6361;52.120;5.108;2023-03-23T02:07:13;5.63;;;3.33;;
12591;SDS011;6361;52.120;5.108;2023-03-23T02:09:40;4.82;;;3.22;;
12591;SDS011;6361;52.120;5.108;2023-03-23T02:12:06;8.75;;;3.15;;
12591;SDS011;6361;52.120;5.108;2023-03-23T02:14:31;4.32;;;3.22;;
12591;SDS011;6361;52.120;5.108;2023-03-23T02:28:34;7.78;;;3.58;;
12591;SDS011;6361;52.120;5.108;2023-03-23T02:36:47;6.47;;;3.63;;
12591;SDS011;6361;52.120;5.108;2023-03-23T02:39:26;8.52;;;3.80;;
12591;SDS011;6361;52.120;5.108;2023-03-23T02:44:28;6.70;;;3.53;;
12591;SDS011;6361;52.120;5.108;2023-03-23T02:46:56;7.53;;;3.40;;
12591;SDS011;6361;52.120;5.108;2023-03-23T02:49:22;5.07;;;2.88;;
12591;SDS011;6361;52.120;5.108;2023-03-23T02:51:49;7.57;;;3.45;;
12591;SDS011;6361;52.120;5.108;2023-03-23T02:54:16;6.28;;;3.35;;
12591;SDS011;6361;52.120;5.108;2023-03-23T02:56:43;4.63;;;2.85;;
12591;SDS011;6361;52.120;5.108;2023-03-23T02:59:09;4.90;;;2.90;;
12591;SDS011;6361;52.120;5.108;2023-03-23T03:04:04;6.63;;;2.50;;
12591;SDS011;6361;52.120;5.108;2023-03-23T03:11:48;9.93;;;2.58;;
12591;SDS011;6361;52.120;5.108;2023-03-23T03:14:26;7.13;;;2.58;;
12591;SDS011;6361;52.120;5.108;2023-03-23T03:16:58;6.70;;;2.67;;
12591;SDS011;6361;52.120;5.108;2023-03-23T03:19:35;6.70;;;2.47;;
12591;SDS011;6361;52.120;5.108;2023-03-23T03:22:04;7.78;;;2.72;;
12591;SDS011;6361;52.120;5.108;2023-03-23T03:24:30;8.45;;;2.35;;
12591;SDS011;6361;52.120;5.108;2023-03-23T03:26:57;8.38;;;2.55;;
12591;SDS011;6361;52.120;5.108;2023-03-23T03:29:28;7.68;;;2.38;;
12591;SDS011;6361;52.120;5.108;2023-03-23T03:31:55;8.50;;;2.65;;
12591;SDS011;6361;52.120;5.108;2023-03-23T03:34:24;5.07;;;2.30;;
12591;SDS011;6361;52.120;5.108;2023-03-23T03:36:50;6.00;;;2.28;;
12591;SDS011;6361;52.120;5.108;2023-03-23T03:39:17;7.00;;;2.47;;
12591;SDS011;6361;52.120;5.108;2023-03-23T03:41:45;6.32;;;2.70;;
12591;SDS011;6361;52.120;5.108;2023-03-23T03:44:10;8.20;;;2.40;;
12591;SDS011;6361;52.120;5.108;2023-03-23T03:46:36;5.60;;;2.53;;
12591;SDS011;6361;52.120;5.108;2023-03-23T03:49:02;5.72;;;2.45;;
12591;SDS011;6361;52.120;5.108;2023-03-23T03:51:32;4.35;;;2.20;;
12591;SDS011;6361;52.120;5.108;2023-03-23T03:53:57;6.85;;;2.60;;
12591;SDS011;6361;52.120;5.108;2023-03-23T03:56:23;6.72;;;2.47;;
12591;SDS011;6361;52.120;5.108;2023-03-23T03:58:49;6.28;;;2.22;;
12591;SDS011;6361;52.120;5.108;2023-03-23T04:01:18;6.95;;;2.67;;
12591;SDS011;6361;52.120;5.108;2023-03-23T04:03:47;4.93;;;2.30;;
12591;SDS011;6361;52.120;5.108;2023-03-23T04:06:13;4.63;;;1.98;;
12591;SDS011;6361;52.120;5.108;2023-03-23T04:08:39;4.70;;;2.25;;
12591;SDS011;6361;52.120;5.108;2023-03-23T04:11:06;7.97;;;2.10;;
12591;SDS011;6361;52.120;5.108;2023-03-23T04:13:32;8.52;;;2.17;;
12591;SDS011;6361;52.120;5.108;2023-03-23T04:15:57;6.13;;;2.20;;
12591;SDS011;6361;52.120;5.108;2023-03-23T04:18:23;8.90;;;2.50;;
12591;SDS011;6361;52.120;5.108;2023-03-23T04:20:49;5.80;;;2.40;;
12591;SDS011;6361;52.120;5.108;2023-03-23T04:23:15;5.20;;;1.83;;
12591;SDS011;6361;52.120;5.108;2023-03-23T04:25:45;4.60;;;1.65;;
12591;SDS011;6361;52.120;5.108;2023-03-23T04:28:11;11.48;;;1.85;;
12591;SDS011;6361;52.120;5.108;2023-03-23T04:30:37;5.70;;;1.75;;
12591;SDS011;6361;52.120;5.108;2023-03-23T04:33:03;8.15;;;1.95;;
12591;SDS011;6361;52.120;5.108;2023-03-23T04:35:30;7.28;;;2.08;;
12591;SDS011;6361;52.120;5.108;2023-03-23T04:37:56;7.85;;;2.20;;
12591;SDS011;6361;52.120;5.108;2023-03-23T04:40:22;7.60;;;1.90;;
12591;SDS011;6361;52.120;5.108;2023-03-23T04:42:48;9.60;;;2.40;;
12591;SDS011;6361;52.120;5.108;2023-03-23T04:45:18;7.53;;;1.98;;
12591;SDS011;6361;52.120;5.108;2023-03-23T04:47:46;9.88;;;1.90;;
12591;SDS011;6361;52.120;5.108;2023-03-23T04:50:18;7.28;;;1.90;;
12591;SDS011;6361;52.120;5.108;2023-03-23T04:52:45;11.18;;;2.45;;
12591;SDS011;6361;52.120;5.108;2023-03-23T04:55:11;6.82;;;2.03;;
12591;SDS011;6361;52.120;5.108;2023-03-23T04:57:37;10.13;;;2.55;;
12591;SDS011;6361;52.120;5.108;2023-03-23T05:00:03;7.32;;;1.95;;
12591;SDS011;6361;52.120;5.108;2023-03-23T05:02:39;10.25;;;2.20;;
12591;SDS011;6361;52.120;5.108;2023-03-23T05:05:08;10.40;;;2.00;;
12591;SDS011;6361;52.120;5.108;2023-03-23T05:07:35;8.68;;;1.90;;
12591;SDS011;6361;52.120;5.108;2023-03-23T05:10:01;7.50;;;2.05;;
12591;SDS011;6361;52.120;5.108;2023-03-23T05:12:27;14.93;;;2.45;;
12591;SDS011;6361;52.120;5.108;2023-03-23T05:14:53;13.32;;;2.20;;
12591;SDS011;6361;52.120;5.108;2023-03-23T05:17:18;12.10;;;2.33;;
12591;SDS011;6361;52.120;5.108;2023-03-23T05:19:44;11.10;;;2.53;;
12591;SDS011;6361;52.120;5.108;2023-03-23T05:22:12;11.38;;;2.38;;
12591;SDS011;6361;52.120;5.108;2023-03-23T05:24:40;11.13;;;2.70;;
12591;SDS011;6361;52.120;5.108;2023-03-23T05:27:07;10.70;;;2.50;;
12591;SDS011;6361;52.120;5.108;2023-03-23T05:29:34;9.13;;;2.75;;
12591;SDS011;6361;52.120;5.108;2023-03-23T05:32:01;8.32;;;2.78;;
12591;SDS011;6361;52.120;5.108;2023-03-23T05:34:30;17.02;;;3.08;;
12591;SDS011;6361;52.120;5.108;2023-03-23T05:36:57;16.00;;;2.90;;
12591;SDS011;6361;52.120;5.108;2023-03-23T05:39:23;9.95;;;2.60;;
12591;SDS011;6361;52.120;5.108;2023-03-23T05:41:50;11.88;;;2.50;;
12591;SDS011;6361;52.120;5.108;2023-03-23T05:44:15;13.23;;;2.50;;
12591;SDS011;6361;52.120;5.108;2023-03-23T05:46:41;11.15;;;3.47;;
12591;SDS011;6361;52.120;5.108;2023-03-23T05:49:06;13.38;;;2.67;;
12591;SDS011;6361;52.120;5.108;2023-03-23T05:51:32;11.88;;;3.03;;
12591;SDS011;6361;52.120;5.108;2023-03-23T05:53:57;9.90;;;3.03;;
12591;SDS011;6361;52.120;5.108;2023-03-23T05:56:23;13.52;;;3.13;;
12591;SDS011;6361;52.120;5.108;2023-03-23T05:58:49;9.75;;;3.08;;
12591;SDS011;6361;52.120;5.108;2023-03-23T06:01:14;13.40;;;3.10;;
12591;SDS011;6361;52.120;5.108;2023-03-23T06:03:40;11.48;;;3.47;;
12591;SDS011;6361;52.120;5.108;2023-03-23T06:06:06;10.05;;;3.10;;
12591;SDS011;6361;52.120;5.108;2023-03-23T06:08:33;9.15;;;2.85;;
12591;SDS011;6361;52.120;5.108;2023-03-23T06:10:58;8.88;;;3.20;;
12591;SDS011;6361;52.120;5.108;2023-03-23T06:13:23;8.93;;;2.40;;
12591;SDS011;6361;52.120;5.108;2023-03-23T06:15:49;14.35;;;2.58;;
12591;SDS011;6361;52.120;5.108;2023-03-23T06:18:14;12.52;;;3.13;;
12591;SDS011;6361;52.120;5.108;2023-03-23T06:20:40;11.02;;;3.08;;
12591;SDS011;6361;52.120;5.108;2023-03-23T06:23:07;12.10;;;2.97;;
12591;SDS011;6361;52.120;5.108;2023-03-23T06:25:33;20.77;;;4.43;;
12591;SDS011;6361;52.120;5.108;2023-03-23T06:27:59;14.25;;;3.33;;
12591;SDS011;6361;52.120;5.108;2023-03-23T06:30:25;12.52;;;3.47;;
12591;SDS011;6361;52.120;5.108;2023-03-23T06:32:51;10.77;;;3.17;;
12591;SDS011;6361;52.120;5.108;2023-03-23T06:35:17;8.02;;;2.78;;
12591;SDS011;6361;52.120;5.108;2023-03-23T06:37:46;10.23;;;3.55;;
12591;SDS011;6361;52.120;5.108;2023-03-23T06:40:11;10.90;;;3.80;;
12591;SDS011;6361;52.120;5.108;2023-03-23T06:42:37;15.13;;;3.50;;
12591;SDS011;6361;52.120;5.108;2023-03-23T06:45:03;11.98;;;3.80;;
12591;SDS011;6361;52.120;5.108;2023-03-23T06:47:29;10.60;;;3.67;;
12591;SDS011;6361;52.120;5.108;2023-03-23T06:49:55;12.68;;;3.35;;
12591;SDS011;6361;52.120;5.108;2023-03-23T06:52:24;20.10;;;3.50;;
12591;SDS011;6361;52.120;5.108;2023-03-23T06:54:50;14.57;;;3.53;;
12591;SDS011;6361;52.120;5.108;2023-03-23T06:57:16;13.77;;;3.65;;
12591;SDS011;6361;52.120;5.108;2023-03-23T06:59:42;13.73;;;3.47;;
12591;SDS011;6361;52.120;5.108;2023-03-23T07:02:09;10.23;;;3.60;;
12591;SDS011;6361;52.120;5.108;2023-03-23T07:04:36;14.85;;;3.30;;
12591;SDS011;6361;52.120;5.108;2023-03-23T07:07:02;10.23;;;2.65;;
12591;SDS011;6361;52.120;5.108;2023-03-23T07:09:28;11.88;;;3.00;;
12591;SDS011;6361;52.120;5.108;2023-03-23T07:11:53;11.23;;;3.00;;
12591;SDS011;6361;52.120;5.108;2023-03-23T07:14:19;16.92;;;3.55;;
12591;SDS011;6361;52.120;5.108;2023-03-23T07:16:44;6.90;;;2.80;;
12591;SDS011;6361;52.120;5.108;2023-03-23T07:19:10;14.68;;;3.28;;
12591;SDS011;6361;52.120;5.108;2023-03-23T07:21:35;17.27;;;3.40;;
12591;SDS011;6361;52.120;5.108;2023-03-23T07:24:01;10.52;;;3.28;;
12591;SDS011;6361;52.120;5.108;2023-03-23T07:26:27;13.30;;;3.20;;
12591;SDS011;6361;52.120;5.108;2023-03-23T07:28:52;13.00;;;2.80;;
12591;SDS011;6361;52.120;5.108;2023-03-23T07:31:18;9.15;;;3.00;;
12591;SDS011;6361;52.120;5.108;2023-03-23T07:33:43;12.05;;;3.30;;
12591;SDS011;6361;52.120;5.108;2023-03-23T07:36:09;15.25;;;3.05;;
12591;SDS011;6361;52.120;5.108;2023-03-23T07:38:34;12.70;;;2.90;;
12591;SDS011;6361;52.120;5.108;2023-03-23T07:41:00;15.73;;;3.08;;
12591;SDS011;6361;52.120;5.108;2023-03-23T07:43:26;13.25;;;2.92;;
12591;SDS011;6361;52.120;5.108;2023-03-23T07:45:52;11.13;;;3.03;;
12591;SDS011;6361;52.120;5.108;2023-03-23T07:48:17;17.25;;;3.22;;
12591;SDS011;6361;52.120;5.108;2023-03-23T07:50:43;15.98;;;2.90;;
12591;SDS011;6361;52.120;5.108;2023-03-23T07:53:09;12.93;;;3.10;;
12591;SDS011;6361;52.120;5.108;2023-03-23T07:55:34;11.55;;;2.85;;
12591;SDS011;6361;52.120;5.108;2023-03-23T07:57:59;13.82;;;3.10;;
12591;SDS011;6361;52.120;5.108;2023-03-23T08:00:25;11.63;;;2.75;;
12591;SDS011;6361;52.120;5.108;2023-03-23T08:02:51;11.65;;;3.00;;
12591;SDS011;6361;52.120;5.108;2023-03-23T08:05:21;13.43;;;3.22;;
12591;SDS011;6361;52.120;5.108;2023-03-23T08:07:47;11.38;;;3.10;;
12591;SDS011;6361;52.120;5.108;2023-03-23T08:10:13;12.38;;;2.67;;
12591;SDS011;6361;52.120;5.108;2023-03-23T08:12:40;9.88;;;2.47;;
12591;SDS011;6361;52.120;5.108;2023-03-23T08:15:07;10.35;;;2.50;;
12591;SDS011;6361;52.120;5.108;2023-03-23T08:17:33;13.05;;;2.55;;
12591;SDS011;6361;52.120;5.108;2023-03-23T08:20:00;10.30;;;2.70;;
12591;SDS011;6361;52.120;5.108;2023-03-23T08:22:26;11.25;;;2.80;;
12591;SDS011;6361;52.120;5.108;2023-03-23T08:24:54;12.82;;;2.88;;
12591;SDS011;6361;52.120;5.108;2023-03-23T08:27:19;10.18;;;2.63;;
12591;SDS011;6361;52.120;5.108;2023-03-23T08:29:45;11.75;;;3.10;;
12591;SDS011;6361;52.120;5.108;2023-03-23T08:32:11;9.80;;;2.97;;
12591;SDS011;6361;52.120;5.108;2023-03-23T08:34:37;12.77;;;3.20;;
12591;SDS011;6361;52.120;5.108;2023-03-23T08:37:02;10.45;;;2.92;;
12591;SDS011;6361;52.120;5.108;2023-03-23T08:39:28;13.70;;;3.15;;
12591;SDS011;6361;52.120;5.108;2023-03-23T08:41:55;17.05;;;3.88;;
12591;SDS011;6361;52.120;5.108;2023-03-23T08:44:20;12.25;;;2.95;;
12591;SDS011;6361;52.120;5.108;2023-03-23T08:46:46;13.25;;;2.97;;
12591;SDS011;6361;52.120;5.108;2023-03-23T08:49:11;11.13;;;2.85;;
12591;SDS011;6361;52.120;5.108;2023-03-23T08:51:36;10.63;;;3.35;;
12591;SDS011;6361;52.120;5.108;2023-03-23T08:54:02;10.13;;;3.67;;
12591;SDS011;6361;52.120;5.108;2023-03-23T08:56:27;15.95;;;3.15;;
12591;SDS011;6361;52.120;5.108;2023-03-23T08:58:53;10.35;;;3.15;;
12591;SDS011;6361;52.120;5.108;2023-03-23T09:01:19;13.40;;;3.40;;
12591;SDS011;6361;52.120;5.108;2023-03-23T09:03:45;12.90;;;3.17;;
12591;SDS011;6361;52.120;5.108;2023-03-23T09:06:10;12.35;;;3.15;;
12591;SDS011;6361;52.120;5.108;2023-03-23T09:08:37;11.55;;;3.03;;
12591;SDS011;6361;52.120;5.108;2023-03-23T09:11:05;14.35;;;3.30;;
12591;SDS011;6361;52.120;5.108;2023-03-23T09:13:32;12.27;;;2.75;;
12591;SDS011;6361;52.120;5.108;2023-03-23T09:15:58;12.73;;;3.20;;
12591;SDS011;6361;52.120;5.108;2023-03-23T09:18:23;11.00;;;2.78;;
12591;SDS011;6361;52.120;5.108;2023-03-23T09:20:50;20.30;;;3.45;;
12591;SDS011;6361;52.120;5.108;2023-03-23T09:23:16;18.13;;;3.78;;
12591;SDS011;6361;52.120;5.108;2023-03-23T09:25:41;12.52;;;3.20;;
12591;SDS011;6361;52.120;5.108;2023-03-23T09:28:07;13.82;;;2.97;;
12591;SDS011;6361;52.120;5.108;2023-03-23T09:30:33;13.38;;;2.78;;
12591;SDS011;6361;52.120;5.108;2023-03-23T09:33:01;17.27;;;3.17;;
12591;SDS011;6361;52.120;5.108;2023-03-23T09:35:27;11.85;;;2.80;;
12591;SDS011;6361;52.120;5.108;2023-03-23T09:37:53;13.38;;;3.13;;
12591;SDS011;6361;52.120;5.108;2023-03-23T09:40:20;20.02;;;3.33;;
12591;SDS011;6361;52.120;5.108;2023-03-23T09:42:59;10.73;;;3.10;;
12591;SDS011;6361;52.120;5.108;2023-03-23T09:45:31;12.30;;;2.65;;
12591;SDS011;6361;52.120;5.108;2023-03-23T09:50:33;19.55;;;3.20;;
12591;SDS011;6361;52.120;5.108;2023-03-23T09:53:10;14.50;;;2.83;;
12591;SDS011;6361;52.120;5.108;2023-03-23T09:55:40;20.30;;;3.13;;
12591;SDS011;6361;52.120;5.108;2023-03-23T10:03:42;13.60;;;2.88;;
12591;SDS011;6361;52.120;5.108;2023-03-23T10:06:09;12.18;;;2.92;;
12591;SDS011;6361;52.120;5.108;2023-03-23T10:08:37;19.38;;;2.83;;
12591;SDS011;6361;52.120;5.108;2023-03-23T10:11:54;15.20;;;2.90;;
12591;SDS011;6361;52.120;5.108;2023-03-23T10:17:28;14.73;;;2.70;;
12591;SDS011;6361;52.120;5.108;2023-03-23T10:22:39;13.82;;;2.97;;
12591;SDS011;6361;52.120;5.108;2023-03-23T10:25:14;13.25;;;2.72;;
12591;SDS011;6361;52.120;5.108;2023-03-23T10:27:50;14.93;;;3.17;;
12591;SDS011;6361;52.120;5.108;2023-03-23T10:30:40;12.18;;;3.00;;
12591;SDS011;6361;52.120;5.108;2023-03-23T10:33:13;10.75;;;2.30;;
12591;SDS011;6361;52.120;5.108;2023-03-23T10:38:29;15.38;;;2.70;;
12591;SDS011;6361;52.120;5.108;2023-03-23T10:41:02;14.05;;;2.60;;
12591;SDS011;6361;52.120;5.108;2023-03-23T10:43:31;15.32;;;3.17;;
12591;SDS011;6361;52.120;5.108;2023-03-23T10:46:00;15.20;;;2.88;;
12591;SDS011;6361;52.120;5.108;2023-03-23T10:48:29;14.95;;;2.67;;
12591;SDS011;6361;52.120;5.108;2023-03-23T10:50:58;16.00;;;2.65;;
12591;SDS011;6361;52.120;5.108;2023-03-23T10:54:00;12.95;;;2.80;;
12591;SDS011;6361;52.120;5.108;2023-03-23T10:58:59;18.35;;;3.45;;
12591;SDS011;6361;52.120;5.108;2023-03-23T11:01:29;15.32;;;2.70;;
12591;SDS011;6361;52.120;5.108;2023-03-23T11:03:56;16.35;;;3.03;;
12591;SDS011;6361;52.120;5.108;2023-03-23T11:06:32;17.08;;;2.83;;
12591;SDS011;6361;52.120;5.108;2023-03-23T11:09:03;17.65;;;2.78;;
12591;SDS011;6361;52.120;5.108;2023-03-23T11:11:39;13.52;;;2.20;;
12591;SDS011;6361;52.120;5.108;2023-03-23T11:14:18;17.85;;;2.80;;
12591;SDS011;6361;52.120;5.108;2023-03-23T11:16:53;15.05;;;2.90;;
12591;SDS011;6361;52.120;5.108;2023-03-23T11:19:30;15.65;;;3.05;;
12591;SDS011;6361;52.120;5.108;2023-03-23T11:22:06;14.77;;;2.97;;
12591;SDS011;6361;52.120;5.108;2023-03-23T11:24:37;12.82;;;2.55;;
12591;SDS011;6361;52.120;5.108;2023-03-23T11:27:06;13.38;;;2.55;;
12591;SDS011;6361;52.120;5.108;2023-03-23T11:29:33;12.13;;;2.38;;
12591;SDS011;6361;52.120;5.108;2023-03-23T11:34:30;18.60;;;3.00;;
12591;SDS011;6361;52.120;5.108;2023-03-23T11:37:01;13.55;;;2.90;;
12591;SDS011;6361;52.120;5.108;2023-03-23T11:39:46;19.50;;;3.10;;
12591;SDS011;6361;52.120;5.108;2023-03-23T11:42:21;14.75;;;2.83;;
12591;SDS011;6361;52.120;5.108;2023-03-23T11:44:52;15.23;;;3.33;;
12591;SDS011;6361;52.120;5.108;2023-03-23T11:47:27;13.88;;;2.45;;
12591;SDS011;6361;52.120;5.108;2023-03-23T11:52:59;12.38;;;2.70;;
12591;SDS011;6361;52.120;5.108;2023-03-23T11:55:33;14.32;;;2.70;;
12591;SDS011;6361;52.120;5.108;2023-03-23T11:58:00;17.38;;;2.92;;
12591;SDS011;6361;52.120;5.108;2023-03-23T12:00:28;15.05;;;2.70;;
12591;SDS011;6361;52.120;5.108;2023-03-23T12:06:11;16.08;;;2.75;;
12591;SDS011;6361;52.120;5.108;2023-03-23T12:14:40;15.30;;;2.58;;
12591;SDS011;6361;52.120;5.108;2023-03-23T12:22:37;13.45;;;2.88;;
12591;SDS011;6361;52.120;5.108;2023-03-23T12:25:13;12.25;;;2.58;;
12591;SDS011;6361;52.120;5.108;2023-03-23T12:43:48;12.18;;;2.17;;
12591;SDS011;6361;52.120;5.108;2023-03-23T12:48:49;9.07;;;2.03;;
12591;SDS011;6361;52.120;5.108;2023-03-23T12:59:22;11.50;;;2.20;;
12591;SDS011;6361;52.120;5.108;2023-03-23T13:01:52;9.25;;;2.03;;
12591;SDS011;6361;52.120;5.108;2023-03-23T13:04:25;7.65;;;1.95;;
12591;SDS011;6361;52.120;5.108;2023-03-23T13:06:55;9.40;;;1.98;;
12591;SDS011;6361;52.120;5.108;2023-03-23T13:09:26;9.88;;;1.92;;
12591;SDS011;6361;52.120;5.108;2023-03-23T13:11:54;10.38;;;2.22;;
12591;SDS011;6361;52.120;5.108;2023-03-23T13:14:26;16.67;;;2.38;;
12591;SDS011;6361;52.120;5.108;2023-03-23T13:31:32;9.05;;;2.20;;
12591;SDS011;6361;52.120;5.108;2023-03-23T13:34:03;10.88;;;2.15;;
12591;SDS011;6361;52.120;5.108;2023-03-23T13:36:36;8.23;;;2.03;;
12591;SDS011;6361;52.120;5.108;2023-03-23T13:39:05;8.30;;;2.10;;
12591;SDS011;6361;52.120;5.108;2023-03-23T13:41:33;8.23;;;1.70;;
12591;SDS011;6361;52.120;5.108;2023-03-23T13:44:14;12.20;;;2.70;;
12591;SDS011;6361;52.120;5.108;2023-03-23T13:46:42;9.52;;;2.00;;
12591;SDS011;6361;52.120;5.108;2023-03-23T13:49:20;11.75;;;2.40;;
12591;SDS011;6361;52.120;5.108;2023-03-23T13:52:00;10.40;;;2.45;;
12591;SDS011;6361;52.120;5.108;2023-03-23T13:54:42;7.70;;;1.92;;
12591;SDS011;6361;52.120;5.108;2023-03-23T13:59:58;10.98;;;2.17;;
12591;SDS011;6361;52.120;5.108;2023-03-23T14:02:32;11.75;;;2.20;;
12591;SDS011;6361;52.120;5.108;2023-03-23T14:05:09;12.75;;;2.38;;
12591;SDS011;6361;52.120;5.108;2023-03-23T14:08:01;11.38;;;2.42;;
12591;SDS011;6361;52.120;5.108;2023-03-23T14:10:49;7.28;;;2.05;;
12591;SDS011;6361;52.120;5.108;2023-03-23T14:16:00;6.50;;;2.17;;
12591;SDS011;6361;52.120;5.108;2023-03-23T14:18:32;9.07;;;2.05;;
12591;SDS011;6361;52.120;5.108;2023-03-23T14:21:00;7.95;;;2.00;;
12591;SDS011;6361;52.120;5.108;2023-03-23T14:23:26;7.25;;;2.10;;
12591;SDS011;6361;52.120;5.108;2023-03-23T14:25:59;9.05;;;2.25;;
12591;SDS011;6361;52.120;5.108;2023-03-23T14:28:32;12.77;;;2.75;;
12591;SDS011;6361;52.120;5.108;2023-03-23T14:31:01;13.90;;;2.78;;
12591;SDS011;6361;52.120;5.108;2023-03-23T14:33:26;7.93;;;2.20;;
12591;SDS011;6361;52.120;5.108;2023-03-23T14:35:52;11.10;;;2.60;;
12591;SDS011;6361;52.120;5.108;2023-03-23T14:38:20;10.65;;;2.40;;
12591;SDS011;6361;52.120;5.108;2023-03-23T14:40:50;12.57;;;2.10;;
12591;SDS011;6361;52.120;5.108;2023-03-23T14:43:16;14.38;;;2.75;;
12591;SDS011;6361;52.120;5.108;2023-03-23T14:45:43;18.42;;;2.88;;
12591;SDS011;6361;52.120;5.108;2023-03-23T14:48:12;16.63;;;2.92;;
12591;SDS011;6361;52.120;5.108;2023-03-23T14:50:39;13.27;;;2.58;;
12591;SDS011;6361;52.120;5.108;2023-03-23T14:53:11;10.23;;;2.33;;
12591;SDS011;6361;52.120;5.108;2023-03-23T14:55:41;12.63;;;2.30;;
12591;SDS011;6361;52.120;5.108;2023-03-23T14:58:08;11.80;;;2.63;;
12591;SDS011;6361;52.120;5.108;2023-03-23T15:00:41;12.95;;;2.22;;
12591;SDS011;6361;52.120;5.108;2023-03-23T15:03:16;14.52;;;2.40;;
12591;SDS011;6361;52.120;5.108;2023-03-23T15:05:54;12.38;;;2.42;;
12591;SDS011;6361;52.120;5.108;2023-03-23T15:08:25;11.13;;;2.50;;
12591;SDS011;6361;52.120;5.108;2023-03-23T15:11:06;12.40;;;2.85;;
12591;SDS011;6361;52.120;5.108;2023-03-23T15:13:36;11.63;;;2.13;;
12591;SDS011;6361;52.120;5.108;2023-03-23T15:19:04;12.57;;;2.85;;
12591;SDS011;6361;52.120;5.108;2023-03-23T15:21:32;12.10;;;2.53;;
12591;SDS011;6361;52.120;5.108;2023-03-23T15:24:02;13.23;;;2.40;;
12591;SDS011;6361;52.120;5.108;2023-03-23T15:26:43;9.20;;;1.88;;
12591;SDS011;6361;52.120;5.108;2023-03-23T15:29:13;7.90;;;2.47;;
12591;SDS011;6361;52.120;5.108;2023-03-23T15:31:45;13.45;;;2.55;;
12591;SDS011;6361;52.120;5.108;2023-03-23T15:34:18;12.60;;;2.55;;
12591;SDS011;6361;52.120;5.108;2023-03-23T15:36:50;10.53;;;2.57;;
12591;SDS011;6361;52.120;5.108;2023-03-23T15:39:40;17.38;;;2.90;;
12591;SDS011;6361;52.120;5.108;2023-03-23T15:42:05;12.20;;;2.58;;
12591;SDS011;6361;52.120;5.108;2023-03-23T15:44:32;10.57;;;2.50;;
12591;SDS011;6361;52.120;5.108;2023-03-23T15:47:17;14.77;;;3.45;;
12591;SDS011;6361;52.120;5.108;2023-03-23T15:49:45;12.70;;;2.30;;
12591;SDS011;6361;52.120;5.108;2023-03-23T15:52:12;15.82;;;2.90;;
12591;SDS011;6361;52.120;5.108;2023-03-23T15:54:38;13.13;;;2.60;;
12591;SDS011;6361;52.120;5.108;2023-03-23T15:57:11;12.45;;;2.40;;
12591;SDS011;6361;52.120;5.108;2023-03-23T15:59:36;17.20;;;2.53;;
12591;SDS011;6361;52.120;5.108;2023-03-23T16:02:02;13.93;;;2.72;;
12591;SDS011;6361;52.120;5.108;2023-03-23T16:04:28;11.60;;;2.50;;
12591;SDS011;6361;52.120;5.108;2023-03-23T16:06:54;11.32;;;2.17;;
12591;SDS011;6361;52.120;5.108;2023-03-23T16:09:20;12.63;;;2.72;;
12591;SDS011;6361;52.120;5.108;2023-03-23T16:11:46;13.00;;;2.72;;
12591;SDS011;6361;52.120;5.108;2023-03-23T16:14:14;11.32;;;2.60;;
12591;SDS011;6361;52.120;5.108;2023-03-23T16:16:44;11.73;;;2.95;;
12591;SDS011;6361;52.120;5.108;2023-03-23T16:19:11;15.95;;;2.72;;
12591;SDS011;6361;52.120;5.108;2023-03-23T16:21:37;16.73;;;3.10;;
12591;SDS011;6361;52.120;5.108;2023-03-23T16:24:03;11.60;;;2.60;;
12591;SDS011;6361;52.120;5.108;2023-03-23T16:26:28;14.95;;;2.95;;
12591;SDS011;6361;52.120;5.108;2023-03-23T16:28:54;15.50;;;3.35;;
12591;SDS011;6361;52.120;5.108;2023-03-23T16:31:20;14.55;;;3.30;;
12591;SDS011;6361;52.120;5.108;2023-03-23T16:33:45;13.05;;;2.80;;
12591;SDS011;6361;52.120;5.108;2023-03-23T16:39:12;12.98;;;3.03;;
12591;SDS011;6361;52.120;5.108;2023-03-23T16:41:37;12.25;;;3.03;;
12591;SDS011;6361;52.120;5.108;2023-03-23T16:44:03;11.82;;;2.65;;
12591;SDS011;6361;52.120;5.108;2023-03-23T16:46:29;14.40;;;2.75;;
12591;SDS011;6361;52.120;5.108;2023-03-23T16:48:54;15.60;;;2.88;;
12591;SDS011;6361;52.120;5.108;2023-03-23T16:51:20;12.60;;;2.70;;
12591;SDS011;6361;52.120;5.108;2023-03-23T16:53:46;15.20;;;2.50;;
12591;SDS011;6361;52.120;5.108;2023-03-23T16:56:11;14.02;;;2.83;;
12591;SDS011;6361;52.120;5.108;2023-03-23T16:58:36;12.40;;;3.25;;
12591;SDS011;6361;52.120;5.108;2023-03-23T17:01:02;12.52;;;2.67;;
12591;SDS011;6361;52.120;5.108;2023-03-23T17:03:28;11.93;;;2.78;;